Zagreb — 9AA5910 — position and weather

sailwx.info

Track history (hours):
 
Tides and Currents Weather Stations Pressure Air Temp Water Temp Dewpoint Dewpoint Depression Visibility Wind Speed Wind Dir Waves Ship Positions

Zagreb

Last reported at 2017-Jan-16 22:21 UTC. Time now 2017-Jan-24 15:10 UTC.
Position N 60°22' E 028°02'.

Length 229 m; draft 8 m.

Type: Cargo ship. MMSI: 238249000.

Date/timePositionNaut miles runAvg speedWind from/ knotsBaromVisibWave heightAir tempDewpointWater temp
2017-Jan-16 22:21N 60°22' E 028°02'1113.2
2017-Jan-16 21:33N 60°14' E 027°49'1211.6
2017-Jan-16 20:33N 60°09' E 028°10'1312.9
2017-Jan-16 19:33N 60°03' E 028°33'8 7.9
2017-Jan-16 18:32N 59°56' E 028°40'0 0.1
2017-Jan-16 17:32N 59°56' E 028°40'0 0.0
2017-Jan-16 16:32N 59°56' E 028°40'0 0.0
2017-Jan-16 15:23N 59°56' E 028°40'0 0.1
2017-Jan-16 14:08N 59°56' E 028°39'0 0.1
2017-Jan-16 13:11N 59°56' E 028°39'0 0.0
2017-Jan-16 12:29N 59°56' E 028°39'0 0.0
2017-Jan-16 11:26N 59°56' E 028°39'0 0.0
2017-Jan-16 10:29N 59°56' E 028°39'0 0.0
2017-Jan-16 09:29N 59°56' E 028°39'0 0.1
2017-Jan-16 08:32N 59°56' E 028°39'0 0.0
2017-Jan-16 07:32N 59°56' E 028°39'0 0.0
2017-Jan-16 06:32N 59°56' E 028°39'0 0.0
2017-Jan-16 05:29N 59°56' E 028°39'0 0.1
2017-Jan-16 04:32N 59°56' E 028°39'0 0.0
2017-Jan-16 03:32N 59°56' E 028°39'0 0.1
2017-Jan-16 02:33N 59°56' E 028°39'2 2.0
2017-Jan-16 01:33N 59°58' E 028°38'9 9.0
2017-Jan-16 00:33N 60°03' E 028°24'1312.9
2017-Jan-15 23:33N 60°09' E 028°01'1212.3
2017-Jan-15 22:33N 60°08' E 027°36'1413.4
2017-Jan-15 21:32N 60°01' E 027°13'1312.8
2017-Jan-15 20:33N 59°59' E 026°48'8313.5
2017-Jan-15 14:27N 59°41' E 024°08'1213.5
2017-Jan-15 13:33N 59°37' E 023°45'1613.3
2017-Jan-15 12:23N 59°31' E 023°16'33912.5
2017-Jan-14 09:18N 55°38' E 015°39'1113.5
2017-Jan-14 08:29N 55°35' E 015°21'1313.5
2017-Jan-14 07:33N 55°29' E 015°01'1413.7
2017-Jan-14 06:33N 55°23' E 014°39'1313.4
2017-Jan-14 05:33N 55°13' E 014°24'1413.5
2017-Jan-14 04:32N 55°02' E 014°08'1313.1
2017-Jan-14 03:32N 54°57' E 013°47'5713.1
2017-Jan-13 23:13N 54°34' E 012°18'1013.5
2017-Jan-13 22:30N 54°25' E 012°12'16 4.0
2017-Jan-13 18:29N 54°09' E 012°07'0 0.0
2017-Jan-13 17:26N 54°09' E 012°07'0 0.0
2017-Jan-13 14:23N 54°09' E 012°07'0 0.0
2017-Jan-13 12:32N 54°09' E 012°07'0 0.0
2017-Jan-13 11:31N 54°09' E 012°07'0 0.0
2017-Jan-13 05:10N 54°09' E 012°07'0 0.0
2017-Jan-13 04:32N 54°09' E 012°07'0 0.0
2017-Jan-12 16:07N 54°09' E 012°07'0 0.0
2017-Jan-12 15:16N 54°09' E 012°07'0 0.0
2017-Jan-12 14:13N 54°09' E 012°07'0 0.0
2017-Jan-12 12:25N 54°09' E 012°07'0 0.0
2017-Jan-12 05:16N 54°09' E 012°07'0 0.0
2017-Jan-12 01:13N 54°09' E 012°07'0 0.0
2017-Jan-11 17:31N 54°09' E 012°07'0 0.0
2017-Jan-11 14:07N 54°09' E 012°07'0 0.0
2017-Jan-11 13:28N 54°09' E 012°07'0 0.0
2017-Jan-11 12:31N 54°09' E 012°07'0 0.0
2017-Jan-11 11:31N 54°09' E 012°07'0 0.0
2017-Jan-11 10:22N 54°09' E 012°07'0 0.0
2017-Jan-11 09:31N 54°09' E 012°07'0 0.0
2017-Jan-11 08:25N 54°09' E 012°07'0 0.0
2017-Jan-11 07:31N 54°09' E 012°07'0 0.0
2017-Jan-11 05:13N 54°09' E 012°07'0 0.0
2017-Jan-11 04:22N 54°09' E 012°07'0 0.0
2017-Jan-11 03:31N 54°09' E 012°07'0 0.0
2017-Jan-11 02:31N 54°09' E 012°07'0 0.0
2017-Jan-11 01:10N 54°09' E 012°07'0 0.0
2017-Jan-10 23:28N 54°09' E 012°07'0 0.0
2017-Jan-10 20:31N 54°09' E 012°07'0 0.0
2017-Jan-10 19:31N 54°09' E 012°07'1 1.3
2017-Jan-10 18:33N 54°10' E 012°06'8 8.0
2017-Jan-10 17:33N 54°18' E 012°01'7911.2
2017-Jan-10 10:29N 55°03' E 013°54'1010.1
2017-Jan-10 09:33N 55°07' E 014°09'1110.8
2017-Jan-10 08:32N 55°16' E 014°20'1111.6
2017-Jan-10 07:33N 55°25' E 014°33'1211.9
2017-Jan-10 06:32N 55°31' E 014°51'1211.8
2017-Jan-10 05:32N 55°36' E 015°10'34311.0
2017-Jan-08 22:29N 59°33' E 022°51'1011.2
2017-Jan-08 21:33N 59°36' E 023°11'1110.9
2017-Jan-08 20:33N 59°40' E 023°31'1110.9
2017-Jan-08 19:33N 59°43' E 023°52'1210.9
2017-Jan-08 18:27N 59°46' E 024°15'5411.1
2017-Jan-08 13:32N 59°57' E 026°01'1211.5
2017-Jan-08 12:29N 60°00' E 026°24'1111.4
2017-Jan-08 11:33N 60°01' E 026°46'1110.9
2017-Jan-08 10:31N 60°01' E 027°08'1111.8
2017-Jan-08 09:33N 60°07' E 027°27'1211.3
2017-Jan-08 08:30N 60°12' E 027°49'1112.0
2017-Jan-08 07:33N 60°09' E 028°11'1211.7
2017-Jan-08 06:33N 60°03' E 028°32'8 7.8
2017-Jan-08 05:33N 59°56' E 028°34'10 9.6
2017-Jan-08 04:33N 59°47' E 028°25'6 6.1
2017-Jan-08 03:33N 59°41' E 028°25'0 0.0
2017-Jan-08 02:27N 59°41' E 028°25'0 0.0
2017-Jan-08 01:27N 59°41' E 028°25'0 0.0
2017-Jan-08 00:30N 59°41' E 028°25'0 0.0
2017-Jan-07 23:30N 59°41' E 028°25'0 0.0
2017-Jan-07 22:30N 59°41' E 028°25'0 0.0
2017-Jan-07 21:33N 59°41' E 028°25'0 0.0
2017-Jan-07 20:33N 59°41' E 028°25'0 0.0
2017-Jan-07 19:33N 59°41' E 028°25'0 0.0
2017-Jan-07 18:33N 59°41' E 028°25'0 0.0
2017-Jan-07 17:33N 59°41' E 028°25'0 0.0
2017-Jan-07 16:33N 59°41' E 028°25'0 0.0
2017-Jan-07 15:33N 59°41' E 028°25'0 0.0
2017-Jan-07 14:24N 59°41' E 028°25'0 0.0
2017-Jan-07 13:24N 59°41' E 028°25'0 0.0
2017-Jan-07 12:27N 59°41' E 028°25'0 0.0
2017-Jan-07 11:12N 59°41' E 028°25'0 0.0
2017-Jan-07 10:30N 59°41' E 028°25'0 0.0
2017-Jan-07 09:30N 59°41' E 028°25'0 0.0
2017-Jan-07 08:30N 59°41' E 028°25'0 0.0
2017-Jan-07 07:30N 59°41' E 028°25'0 0.0
2017-Jan-07 06:33N 59°41' E 028°25'0 0.0
2017-Jan-07 05:33N 59°41' E 028°25'0 0.0
2017-Jan-07 04:33N 59°41' E 028°25'0 0.0
2017-Jan-07 03:33N 59°41' E 028°25'0 0.0
2017-Jan-07 02:33N 59°41' E 028°25'0 0.0
2017-Jan-07 01:33N 59°41' E 028°25'0 0.0
2017-Jan-07 00:33N 59°41' E 028°25'0 0.0
2017-Jan-06 23:24N 59°41' E 028°25'0 0.0
2017-Jan-06 22:27N 59°41' E 028°25'  
Track history (hours):
 
Tides and Currents Weather Stations Pressure Air Temp Water Temp Dewpoint Dewpoint Depression Visibility Wind Speed Wind Dir Waves Ship Positions

Zagreb

Last reported at 2017-Jan-16 22:21 UTC. Time now 2017-Jan-24 15:10 UTC.
Position N 60°22' E 028°02'.

Length 229 m; draft 8 m.

Type: Cargo ship. MMSI: 238249000.

Date/timePositionNaut miles runAvg speedWind from/ knotsBaromVisibWave heightAir tempDewpointWater temp
2017-Jan-16 22:21N 60°22' E 028°02'1113.2
2017-Jan-16 21:33N 60°14' E 027°49'1211.6
2017-Jan-16 20:33N 60°09' E 028°10'1312.9
2017-Jan-16 19:33N 60°03' E 028°33'8 7.9
2017-Jan-16 18:32N 59°56' E 028°40'0 0.1
2017-Jan-16 17:32N 59°56' E 028°40'0 0.0
2017-Jan-16 16:32N 59°56' E 028°40'0 0.0
2017-Jan-16 15:23N 59°56' E 028°40'0 0.1
2017-Jan-16 14:08N 59°56' E 028°39'0 0.1
2017-Jan-16 13:11N 59°56' E 028°39'0 0.0
2017-Jan-16 12:29N 59°56' E 028°39'0 0.0
2017-Jan-16 11:26N 59°56' E 028°39'0 0.0
2017-Jan-16 10:29N 59°56' E 028°39'0 0.0
2017-Jan-16 09:29N 59°56' E 028°39'0 0.1
2017-Jan-16 08:32N 59°56' E 028°39'0 0.0
2017-Jan-16 07:32N 59°56' E 028°39'0 0.0
2017-Jan-16 06:32N 59°56' E 028°39'0 0.0
2017-Jan-16 05:29N 59°56' E 028°39'0 0.1
2017-Jan-16 04:32N 59°56' E 028°39'0 0.0
2017-Jan-16 03:32N 59°56' E 028°39'0 0.1
2017-Jan-16 02:33N 59°56' E 028°39'2 2.0
2017-Jan-16 01:33N 59°58' E 028°38'9 9.0
2017-Jan-16 00:33N 60°03' E 028°24'1312.9
2017-Jan-15 23:33N 60°09' E 028°01'1212.3
2017-Jan-15 22:33N 60°08' E 027°36'1413.4
2017-Jan-15 21:32N 60°01' E 027°13'1312.8
2017-Jan-15 20:33N 59°59' E 026°48'8313.5
2017-Jan-15 14:27N 59°41' E 024°08'1213.5
2017-Jan-15 13:33N 59°37' E 023°45'1613.3
2017-Jan-15 12:23N 59°31' E 023°16'33912.5
2017-Jan-14 09:18N 55°38' E 015°39'1113.5
2017-Jan-14 08:29N 55°35' E 015°21'1313.5
2017-Jan-14 07:33N 55°29' E 015°01'1413.7
2017-Jan-14 06:33N 55°23' E 014°39'1313.4
2017-Jan-14 05:33N 55°13' E 014°24'1413.5
2017-Jan-14 04:32N 55°02' E 014°08'1313.1
2017-Jan-14 03:32N 54°57' E 013°47'5713.1
2017-Jan-13 23:13N 54°34' E 012°18'1013.5
2017-Jan-13 22:30N 54°25' E 012°12'16 4.0
2017-Jan-13 18:29N 54°09' E 012°07'0 0.0
2017-Jan-13 17:26N 54°09' E 012°07'0 0.0
2017-Jan-13 14:23N 54°09' E 012°07'0 0.0
2017-Jan-13 12:32N 54°09' E 012°07'0 0.0
2017-Jan-13 11:31N 54°09' E 012°07'0 0.0
2017-Jan-13 05:10N 54°09' E 012°07'0 0.0
2017-Jan-13 04:32N 54°09' E 012°07'0 0.0
2017-Jan-12 16:07N 54°09' E 012°07'0 0.0
2017-Jan-12 15:16N 54°09' E 012°07'0 0.0
2017-Jan-12 14:13N 54°09' E 012°07'0 0.0
2017-Jan-12 12:25N 54°09' E 012°07'0 0.0
2017-Jan-12 05:16N 54°09' E 012°07'0 0.0
2017-Jan-12 01:13N 54°09' E 012°07'0 0.0
2017-Jan-11 17:31N 54°09' E 012°07'0 0.0
2017-Jan-11 14:07N 54°09' E 012°07'0 0.0
2017-Jan-11 13:28N 54°09' E 012°07'0 0.0
2017-Jan-11 12:31N 54°09' E 012°07'0 0.0
2017-Jan-11 11:31N 54°09' E 012°07'0 0.0
2017-Jan-11 10:22N 54°09' E 012°07'0 0.0
2017-Jan-11 09:31N 54°09' E 012°07'0 0.0
2017-Jan-11 08:25N 54°09' E 012°07'0 0.0
2017-Jan-11 07:31N 54°09' E 012°07'0 0.0
2017-Jan-11 05:13N 54°09' E 012°07'0 0.0
2017-Jan-11 04:22N 54°09' E 012°07'0 0.0
2017-Jan-11 03:31N 54°09' E 012°07'0 0.0
2017-Jan-11 02:31N 54°09' E 012°07'0 0.0
2017-Jan-11 01:10N 54°09' E 012°07'0 0.0
2017-Jan-10 23:28N 54°09' E 012°07'0 0.0
2017-Jan-10 20:31N 54°09' E 012°07'0 0.0
2017-Jan-10 19:31N 54°09' E 012°07'1 1.3
2017-Jan-10 18:33N 54°10' E 012°06'8 8.0
2017-Jan-10 17:33N 54°18' E 012°01'7911.2
2017-Jan-10 10:29N 55°03' E 013°54'1010.1
2017-Jan-10 09:33N 55°07' E 014°09'1110.8
2017-Jan-10 08:32N 55°16' E 014°20'1111.6
2017-Jan-10 07:33N 55°25' E 014°33'1211.9
2017-Jan-10 06:32N 55°31' E 014°51'1211.8
2017-Jan-10 05:32N 55°36' E 015°10'34311.0
2017-Jan-08 22:29N 59°33' E 022°51'1011.2
2017-Jan-08 21:33N 59°36' E 023°11'1110.9
2017-Jan-08 20:33N 59°40' E 023°31'1110.9
2017-Jan-08 19:33N 59°43' E 023°52'1210.9
2017-Jan-08 18:27N 59°46' E 024°15'5411.1
2017-Jan-08 13:32N 59°57' E 026°01'1211.5
2017-Jan-08 12:29N 60°00' E 026°24'1111.4
2017-Jan-08 11:33N 60°01' E 026°46'1110.9
2017-Jan-08 10:31N 60°01' E 027°08'1111.8
2017-Jan-08 09:33N 60°07' E 027°27'1211.3
2017-Jan-08 08:30N 60°12' E 027°49'1112.0
2017-Jan-08 07:33N 60°09' E 028°11'1211.7
2017-Jan-08 06:33N 60°03' E 028°32'8 7.8
2017-Jan-08 05:33N 59°56' E 028°34'10 9.6
2017-Jan-08 04:33N 59°47' E 028°25'6 6.1
2017-Jan-08 03:33N 59°41' E 028°25'0 0.0
2017-Jan-08 02:27N 59°41' E 028°25'0 0.0
2017-Jan-08 01:27N 59°41' E 028°25'0 0.0
2017-Jan-08 00:30N 59°41' E 028°25'0 0.0
2017-Jan-07 23:30N 59°41' E 028°25'0 0.0
2017-Jan-07 22:30N 59°41' E 028°25'0 0.0
2017-Jan-07 21:33N 59°41' E 028°25'0 0.0
2017-Jan-07 20:33N 59°41' E 028°25'0 0.0
2017-Jan-07 19:33N 59°41' E 028°25'0 0.0
2017-Jan-07 18:33N 59°41' E 028°25'0 0.0
2017-Jan-07 17:33N 59°41' E 028°25'0 0.0
2017-Jan-07 16:33N 59°41' E 028°25'0 0.0
2017-Jan-07 15:33N 59°41' E 028°25'0 0.0
2017-Jan-07 14:24N 59°41' E 028°25'0 0.0
2017-Jan-07 13:24N 59°41' E 028°25'0 0.0
2017-Jan-07 12:27N 59°41' E 028°25'0 0.0
2017-Jan-07 11:12N 59°41' E 028°25'0 0.0
2017-Jan-07 10:30N 59°41' E 028°25'0 0.0
2017-Jan-07 09:30N 59°41' E 028°25'0 0.0
2017-Jan-07 08:30N 59°41' E 028°25'0 0.0
2017-Jan-07 07:30N 59°41' E 028°25'0 0.0
2017-Jan-07 06:33N 59°41' E 028°25'0 0.0
2017-Jan-07 05:33N 59°41' E 028°25'0 0.0
2017-Jan-07 04:33N 59°41' E 028°25'0 0.0
2017-Jan-07 03:33N 59°41' E 028°25'0 0.0
2017-Jan-07 02:33N 59°41' E 028°25'0 0.0
2017-Jan-07 01:33N 59°41' E 028°25'0 0.0
2017-Jan-07 00:33N 59°41' E 028°25'0 0.0
2017-Jan-06 23:24N 59°41' E 028°25'0 0.0
2017-Jan-06 22:27N 59°41' E 028°25'  

Dump ship's entire track history